Compton, Maryland
Current Conditions -  °F | °C
As of 7:05 PM on Monday 20 Oct 2014 (Local Time) from K2W6 Reporting Station
Clear Clear  
Wind Chill: 59°   Ceiling: Unl
Heat Index: 59°   Visibility: 10mi
Dew Point: 41°   Wind: 0mph
Humidity: 51%   Direction: NA
Pressure: 29.99"   Gusts: NA
Location:  38.27°N, 76.69°W
Report Text: K2W6 202305Z AUTO 00000KT 10SM CLR 15/05 A2999 RMK AO1
Loading
Personal Weather Stations






























Interactive Weather Map
Tropical Storm Tracking
New forecast layout! Learn more

10-Day Weather Forecast

Advertisements
Track Severe Weather on mobile